sensor_id;sensor_type;location;lat;lon;timestamp;pressure;altitude;pressure_sealevel;temperature;humidity
68456;BME280;55437;55.046;38.838;2023-02-28T00:01:23;100506.88;;;-3.79;58.45
68456;BME280;55437;55.046;38.838;2023-02-28T00:03:49;100508.34;;;-3.84;58.59
68456;BME280;55437;55.046;38.838;2023-02-28T00:06:15;100500.94;;;-3.81;58.67
68456;BME280;55437;55.046;38.838;2023-02-28T00:08:40;100499.19;;;-3.83;58.39
68456;BME280;55437;55.046;38.838;2023-02-28T00:11:09;100508.94;;;-3.91;59.09
68456;BME280;55437;55.046;38.838;2023-02-28T00:13:37;100489.56;;;-3.95;59.13
68456;BME280;55437;55.046;38.838;2023-02-28T00:16:06;100497.03;;;-3.96;58.86
68456;BME280;55437;55.046;38.838;2023-02-28T00:18:32;100495.84;;;-4.06;58.90
68456;BME280;55437;55.046;38.838;2023-02-28T00:20:58;100499.13;;;-4.07;59.42
68456;BME280;55437;55.046;38.838;2023-02-28T00:23:25;100487.53;;;-4.05;59.47
68456;BME280;55437;55.046;38.838;2023-02-28T00:25:52;100489.22;;;-4.04;59.62
68456;BME280;55437;55.046;38.838;2023-02-28T00:28:18;100480.91;;;-4.03;59.26
68456;BME280;55437;55.046;38.838;2023-02-28T00:30:44;100487.41;;;-4.08;59.72
68456;BME280;55437;55.046;38.838;2023-02-28T00:33:29;100498.06;;;-4.14;59.68
68456;BME280;55437;55.046;38.838;2023-02-28T00:36:06;100491.03;;;-4.22;60.03
68456;BME280;55437;55.046;38.838;2023-02-28T00:38:35;100498.56;;;-4.22;60.06
68456;BME280;55437;55.046;38.838;2023-02-28T00:41:02;100498.81;;;-4.16;60.15
68456;BME280;55437;55.046;38.838;2023-02-28T00:43:34;100482.31;;;-4.10;59.95
68456;BME280;55437;55.046;38.838;2023-02-28T00:46:01;100473.00;;;-4.14;60.02
68456;BME280;55437;55.046;38.838;2023-02-28T00:48:29;100476.06;;;-4.21;60.27
68456;BME280;55437;55.046;38.838;2023-02-28T00:50:55;100479.81;;;-4.32;60.35
68456;BME280;55437;55.046;38.838;2023-02-28T00:53:21;100476.56;;;-4.29;60.30
68456;BME280;55437;55.046;38.838;2023-02-28T00:55:49;100481.47;;;-4.32;60.76
68456;BME280;55437;55.046;38.838;2023-02-28T00:58:16;100469.13;;;-4.28;60.68
68456;BME280;55437;55.046;38.838;2023-02-28T01:00:42;100455.16;;;-4.21;60.41
68456;BME280;55437;55.046;38.838;2023-02-28T01:03:08;100460.94;;;-4.22;60.58
68456;BME280;55437;55.046;38.838;2023-02-28T01:05:34;100455.16;;;-4.21;60.91
68456;BME280;55437;55.046;38.838;2023-02-28T01:08:01;100453.66;;;-4.16;60.84
68456;BME280;55437;55.046;38.838;2023-02-28T01:10:27;100442.13;;;-4.13;61.19
68456;BME280;55437;55.046;38.838;2023-02-28T01:12:56;100441.59;;;-4.04;61.09
68456;BME280;55437;55.046;38.838;2023-02-28T01:15:22;100442.81;;;-3.93;60.83
68456;BME280;55437;55.046;38.838;2023-02-28T01:17:48;100439.16;;;-3.79;60.88
68456;BME280;55437;55.046;38.838;2023-02-28T01:20:14;100443.78;;;-3.66;60.47
68456;BME280;55437;55.046;38.838;2023-02-28T01:22:40;100435.88;;;-3.52;60.47
68456;BME280;55437;55.046;38.838;2023-02-28T01:25:07;100441.84;;;-3.49;59.96
68456;BME280;55437;55.046;38.838;2023-02-28T01:27:33;100438.75;;;-3.42;60.26
68456;BME280;55437;55.046;38.838;2023-02-28T01:29:59;100434.78;;;-3.35;59.99
68456;BME280;55437;55.046;38.838;2023-02-28T01:32:25;100428.94;;;-3.34;60.13
68456;BME280;55437;55.046;38.838;2023-02-28T01:34:51;100427.97;;;-3.39;60.42
68456;BME280;55437;55.046;38.838;2023-02-28T01:37:16;100424.69;;;-3.37;60.77
68456;BME280;55437;55.046;38.838;2023-02-28T01:39:43;100418.31;;;-3.27;60.36
68456;BME280;55437;55.046;38.838;2023-02-28T01:42:09;100420.38;;;-3.15;60.43
68456;BME280;55437;55.046;38.838;2023-02-28T01:47:26;100405.44;;;-3.11;60.16
68456;BME280;55437;55.046;38.838;2023-02-28T01:49:55;100401.28;;;-3.10;60.05
68456;BME280;55437;55.046;38.838;2023-02-28T01:52:21;100397.84;;;-3.12;60.03
68456;BME280;55437;55.046;38.838;2023-02-28T01:54:52;100389.34;;;-3.17;60.02
68456;BME280;55437;55.046;38.838;2023-02-28T01:57:49;100392.41;;;-3.26;59.87
68456;BME280;55437;55.046;38.838;2023-02-28T02:00:19;100387.88;;;-3.36;59.76
68456;BME280;55437;55.046;38.838;2023-02-28T02:02:49;100381.47;;;-3.53;60.07
68456;BME280;55437;55.046;38.838;2023-02-28T02:05:23;100389.28;;;-3.70;60.25
68456;BME280;55437;55.046;38.838;2023-02-28T02:07:54;100393.25;;;-3.76;60.47
68456;BME280;55437;55.046;38.838;2023-02-28T02:10:48;100384.91;;;-3.75;60.41
68456;BME280;55437;55.046;38.838;2023-02-28T02:13:28;100391.78;;;-3.70;60.16
68456;BME280;55437;55.046;38.838;2023-02-28T02:18:50;100383.00;;;-3.82;60.29
68456;BME280;55437;55.046;38.838;2023-02-28T02:29:47;100369.47;;;-3.86;60.25
68456;BME280;55437;55.046;38.838;2023-02-28T02:38:08;100348.69;;;-4.07;60.42
68456;BME280;55437;55.046;38.838;2023-02-28T02:40:38;100338.53;;;-4.10;60.52
68456;BME280;55437;55.046;38.838;2023-02-28T02:43:15;100335.03;;;-4.15;60.24
68456;BME280;55437;55.046;38.838;2023-02-28T02:45:51;100321.59;;;-4.17;60.44
68456;BME280;55437;55.046;38.838;2023-02-28T02:48:26;100328.94;;;-4.22;60.63
68456;BME280;55437;55.046;38.838;2023-02-28T02:50:59;100322.28;;;-4.21;60.54
68456;BME280;55437;55.046;38.838;2023-02-28T02:53:32;100320.63;;;-4.21;60.13
68456;BME280;55437;55.046;38.838;2023-02-28T02:56:03;100320.41;;;-4.27;60.89
68456;BME280;55437;55.046;38.838;2023-02-28T02:58:35;100315.97;;;-4.34;60.84
68456;BME280;55437;55.046;38.838;2023-02-28T03:01:11;100307.53;;;-4.38;61.15
68456;BME280;55437;55.046;38.838;2023-02-28T03:03:38;100302.34;;;-4.42;61.15
68456;BME280;55437;55.046;38.838;2023-02-28T03:06:05;100297.16;;;-4.47;61.02
68456;BME280;55437;55.046;38.838;2023-02-28T03:08:36;100304.59;;;-4.50;61.21
68456;BME280;55437;55.046;38.838;2023-02-28T03:11:06;100296.88;;;-4.54;61.56
68456;BME280;55437;55.046;38.838;2023-02-28T03:14:25;100301.97;;;-4.53;60.93
68456;BME280;55437;55.046;38.838;2023-02-28T03:34:01;100252.28;;;-4.41;60.59
68456;BME280;55437;55.046;38.838;2023-02-28T03:36:33;100252.00;;;-4.48;60.95
68456;BME280;55437;55.046;38.838;2023-02-28T03:39:14;100252.38;;;-4.61;61.06
68456;BME280;55437;55.046;38.838;2023-02-28T03:42:19;100246.47;;;-4.63;61.20
68456;BME280;55437;55.046;38.838;2023-02-28T03:45:09;100232.66;;;-4.52;61.10
68456;BME280;55437;55.046;38.838;2023-02-28T03:47:45;100229.09;;;-4.59;60.47
68456;BME280;55437;55.046;38.838;2023-02-28T03:53:04;100228.19;;;-4.61;60.92
68456;BME280;55437;55.046;38.838;2023-02-28T03:55:36;100237.28;;;-4.63;60.76
68456;BME280;55437;55.046;38.838;2023-02-28T04:00:54;100218.66;;;-4.71;60.80
68456;BME280;55437;55.046;38.838;2023-02-28T04:03:23;100215.19;;;-4.75;61.25
68456;BME280;55437;55.046;38.838;2023-02-28T04:05:51;100220.00;;;-4.79;60.91
68456;BME280;55437;55.046;38.838;2023-02-28T04:08:18;100211.53;;;-4.83;61.17
68456;BME280;55437;55.046;38.838;2023-02-28T04:10:48;100218.22;;;-4.83;61.42
68456;BME280;55437;55.046;38.838;2023-02-28T04:13:17;100202.53;;;-4.78;60.92
68456;BME280;55437;55.046;38.838;2023-02-28T04:15:42;100207.50;;;-4.79;61.14
68456;BME280;55437;55.046;38.838;2023-02-28T04:18:08;100208.41;;;-4.77;60.85
68456;BME280;55437;55.046;38.838;2023-02-28T04:20:38;100198.38;;;-4.77;61.28
68456;BME280;55437;55.046;38.838;2023-02-28T04:23:04;100189.22;;;-4.77;61.01
68456;BME280;55437;55.046;38.838;2023-02-28T04:25:29;100189.41;;;-4.71;61.01
68456;BME280;55437;55.046;38.838;2023-02-28T04:27:55;100191.09;;;-4.71;60.70
68456;BME280;55437;55.046;38.838;2023-02-28T04:30:21;100181.09;;;-4.71;61.03
68456;BME280;55437;55.046;38.838;2023-02-28T04:32:47;100173.28;;;-4.79;61.00
68456;BME280;55437;55.046;38.838;2023-02-28T04:35:13;100167.66;;;-4.73;61.06
68456;BME280;55437;55.046;38.838;2023-02-28T04:37:38;100166.94;;;-4.69;60.83
68456;BME280;55437;55.046;38.838;2023-02-28T04:40:05;100171.09;;;-4.69;60.71
68456;BME280;55437;55.046;38.838;2023-02-28T04:42:31;100172.56;;;-4.51;60.35
68456;BME280;55437;55.046;38.838;2023-02-28T04:45:04;100173.66;;;-4.17;59.84
68456;BME280;55437;55.046;38.838;2023-02-28T04:47:30;100171.78;;;-3.99;59.69
68456;BME280;55437;55.046;38.838;2023-02-28T04:49:57;100176.84;;;-3.69;58.89
68456;BME280;55437;55.046;38.838;2023-02-28T04:52:23;100157.00;;;-3.33;58.37
68456;BME280;55437;55.046;38.838;2023-02-28T04:54:49;100155.56;;;-3.25;57.61
68456;BME280;55437;55.046;38.838;2023-02-28T04:57:15;100149.28;;;-3.11;57.43
68456;BME280;55437;55.046;38.838;2023-02-28T04:59:41;100149.50;;;-3.02;57.51
68456;BME280;55437;55.046;38.838;2023-02-28T05:02:07;100130.88;;;-3.10;57.44
68456;BME280;55437;55.046;38.838;2023-02-28T05:04:33;100133.63;;;-3.01;57.11
68456;BME280;55437;55.046;38.838;2023-02-28T05:07:00;100124.69;;;-2.60;56.95
68456;BME280;55437;55.046;38.838;2023-02-28T05:09:27;100126.03;;;-2.03;55.62
68456;BME280;55437;55.046;38.838;2023-02-28T05:11:54;100117.25;;;-1.44;54.29
68456;BME280;55437;55.046;38.838;2023-02-28T05:14:19;100117.56;;;-0.87;53.21
68456;BME280;55437;55.046;38.838;2023-02-28T05:16:45;100106.44;;;-0.51;52.72
68456;BME280;55437;55.046;38.838;2023-02-28T05:19:11;100119.31;;;-0.34;52.18
68456;BME280;55437;55.046;38.838;2023-02-28T05:21:55;100116.97;;;-0.22;51.54
68456;BME280;55437;55.046;38.838;2023-02-28T05:24:21;100116.00;;;-0.30;51.32
68456;BME280;55437;55.046;38.838;2023-02-28T05:26:51;100108.13;;;0.04;50.73
68456;BME280;55437;55.046;38.838;2023-02-28T05:29:18;100105.09;;;0.28;50.17
68456;BME280;55437;55.046;38.838;2023-02-28T05:31:44;100107.72;;;0.32;50.02
68456;BME280;55437;55.046;38.838;2023-02-28T05:34:10;100097.75;;;0.43;49.35
68456;BME280;55437;55.046;38.838;2023-02-28T05:36:39;100096.97;;;0.47;49.51
68456;BME280;55437;55.046;38.838;2023-02-28T05:39:06;100084.75;;;0.84;48.40
68456;BME280;55437;55.046;38.838;2023-02-28T05:41:32;100081.38;;;0.85;48.06
68456;BME280;55437;55.046;38.838;2023-02-28T05:43:58;100081.41;;;0.86;47.80
68456;BME280;55437;55.046;38.838;2023-02-28T05:46:25;100070.34;;;0.77;47.94
68456;BME280;55437;55.046;38.838;2023-02-28T05:48:50;100067.94;;;0.87;47.72
68456;BME280;55437;55.046;38.838;2023-02-28T05:51:16;100070.06;;;0.52;47.61
68456;BME280;55437;55.046;38.838;2023-02-28T05:53:42;100060.03;;;0.58;47.66
68456;BME280;55437;55.046;38.838;2023-02-28T05:56:08;100060.81;;;0.54;47.40
68456;BME280;55437;55.046;38.838;2023-02-28T05:58:34;100044.63;;;0.39;47.54
68456;BME280;55437;55.046;38.838;2023-02-28T06:01:18;100035.22;;;0.27;47.56
68456;BME280;55437;55.046;38.838;2023-02-28T06:03:44;100033.69;;;-0.25;48.34
68456;BME280;55437;55.046;38.838;2023-02-28T06:06:09;100041.06;;;-0.36;48.33
68456;BME280;55437;55.046;38.838;2023-02-28T06:08:35;100020.94;;;-0.33;48.27
68456;BME280;55437;55.046;38.838;2023-02-28T06:11:04;100027.97;;;-0.14;48.29
68456;BME280;55437;55.046;38.838;2023-02-28T06:13:30;100024.78;;;0.01;47.82
68456;BME280;55437;55.046;38.838;2023-02-28T06:15:56;100020.00;;;0.21;47.56
68456;BME280;55437;55.046;38.838;2023-02-28T06:18:26;100016.63;;;0.19;47.35
68456;BME280;55437;55.046;38.838;2023-02-28T06:20:54;99999.22;;;0.42;47.16
68456;BME280;55437;55.046;38.838;2023-02-28T06:23:22;99996.72;;;0.45;46.83
68456;BME280;55437;55.046;38.838;2023-02-28T06:25:48;99990.91;;;0.52;46.88
68456;BME280;55437;55.046;38.838;2023-02-28T06:28:15;99990.38;;;0.82;46.49
68456;BME280;55437;55.046;38.838;2023-02-28T06:30:41;99982.28;;;1.19;45.85
68456;BME280;55437;55.046;38.838;2023-02-28T06:33:07;99969.22;;;1.84;44.97
68456;BME280;55437;55.046;38.838;2023-02-28T06:35:33;99970.13;;;1.97;44.50
68456;BME280;55437;55.046;38.838;2023-02-28T06:37:59;99961.81;;;2.31;43.99
68456;BME280;55437;55.046;38.838;2023-02-28T06:40:24;99951.78;;;2.65;43.29
68456;BME280;55437;55.046;38.838;2023-02-28T06:42:50;99938.25;;;2.67;42.90
68456;BME280;55437;55.046;38.838;2023-02-28T06:45:16;99923.03;;;2.47;42.71
68456;BME280;55437;55.046;38.838;2023-02-28T06:47:42;99923.88;;;2.40;43.06
68456;BME280;55437;55.046;38.838;2023-02-28T06:50:12;99911.19;;;2.40;42.92
68456;BME280;55437;55.046;38.838;2023-02-28T06:52:38;99895.09;;;2.31;42.80
68456;BME280;55437;55.046;38.838;2023-02-28T06:55:06;99892.59;;;2.44;42.60
68456;BME280;55437;55.046;38.838;2023-02-28T06:57:34;99882.47;;;3.02;41.92
68456;BME280;55437;55.046;38.838;2023-02-28T07:00:06;99880.78;;;3.07;41.69
68456;BME280;55437;55.046;38.838;2023-02-28T07:02:53;99879.03;;;3.49;40.77
68456;BME280;55437;55.046;38.838;2023-02-28T07:05:20;99873.03;;;3.70;40.24
68456;BME280;55437;55.046;38.838;2023-02-28T07:07:46;99861.03;;;4.05;39.73
68456;BME280;55437;55.046;38.838;2023-02-28T07:10:13;99867.31;;;4.78;39.04
68456;BME280;55437;55.046;38.838;2023-02-28T07:12:42;99867.84;;;5.13;38.38
68456;BME280;55437;55.046;38.838;2023-02-28T07:15:13;99856.97;;;5.77;37.72
68456;BME280;55437;55.046;38.838;2023-02-28T07:17:39;99840.03;;;5.73;36.81
68456;BME280;55437;55.046;38.838;2023-02-28T07:20:05;99840.63;;;5.95;36.50
68456;BME280;55437;55.046;38.838;2023-02-28T07:22:31;99836.34;;;6.55;35.70
68456;BME280;55437;55.046;38.838;2023-02-28T07:24:56;99838.91;;;6.55;35.58
68456;BME280;55437;55.046;38.838;2023-02-28T07:27:22;99827.38;;;6.85;35.09
68456;BME280;55437;55.046;38.838;2023-02-28T07:29:51;99823.41;;;7.16;34.70
68456;BME280;55437;55.046;38.838;2023-02-28T07:32:18;99820.09;;;7.11;34.27
68456;BME280;55437;55.046;38.838;2023-02-28T07:34:44;99818.47;;;7.07;34.08
68456;BME280;55437;55.046;38.838;2023-02-28T07:37:10;99814.16;;;7.11;34.42
68456;BME280;55437;55.046;38.838;2023-02-28T07:39:36;99796.09;;;7.63;33.60
68456;BME280;55437;55.046;38.838;2023-02-28T07:42:06;99782.97;;;7.80;33.25
68456;BME280;55437;55.046;38.838;2023-02-28T07:44:35;99786.13;;;7.91;32.52
68456;BME280;55437;55.046;38.838;2023-02-28T07:47:09;99784.34;;;7.94;32.79
68456;BME280;55437;55.046;38.838;2023-02-28T07:49:38;99783.28;;;8.03;32.41
68456;BME280;55437;55.046;38.838;2023-02-28T07:52:07;99769.25;;;8.21;32.50
68456;BME280;55437;55.046;38.838;2023-02-28T07:54:33;99776.66;;;7.96;32.14
68456;BME280;55437;55.046;38.838;2023-02-28T07:56:59;99769.53;;;8.09;32.12
68456;BME280;55437;55.046;38.838;2023-02-28T07:59:26;99777.13;;;8.12;31.96
68456;BME280;55437;55.046;38.838;2023-02-28T08:01:51;99754.53;;;8.30;31.49
68456;BME280;55437;55.046;38.838;2023-02-28T08:04:20;99752.44;;;8.46;31.04
68456;BME280;55437;55.046;38.838;2023-02-28T08:06:46;99752.69;;;8.00;31.27
68456;BME280;55437;55.046;38.838;2023-02-28T08:09:12;99745.69;;;7.71;31.33
68456;BME280;55437;55.046;38.838;2023-02-28T08:11:38;99736.97;;;7.78;31.40
68456;BME280;55437;55.046;38.838;2023-02-28T08:14:03;99727.13;;;7.99;31.41
68456;BME280;55437;55.046;38.838;2023-02-28T08:16:29;99724.28;;;8.11;30.92
68456;BME280;55437;55.046;38.838;2023-02-28T08:19:14;99718.28;;;8.49;30.78
68456;BME280;55437;55.046;38.838;2023-02-28T08:22:05;99711.13;;;8.27;31.01
68456;BME280;55437;55.046;38.838;2023-02-28T08:24:31;99705.66;;;7.70;31.15
68456;BME280;55437;55.046;38.838;2023-02-28T08:26:59;99712.69;;;7.20;31.21
68456;BME280;55437;55.046;38.838;2023-02-28T08:29:25;99712.28;;;6.99;31.78
68456;BME280;55437;55.046;38.838;2023-02-28T08:31:50;99705.19;;;6.68;31.87
68456;BME280;55437;55.046;38.838;2023-02-28T08:34:17;99716.63;;;6.47;32.48
68456;BME280;55437;55.046;38.838;2023-02-28T08:36:44;99705.16;;;6.21;32.78
68456;BME280;55437;55.046;38.838;2023-02-28T08:39:12;99702.31;;;6.39;32.54
68456;BME280;55437;55.046;38.838;2023-02-28T08:41:39;99694.41;;;6.53;32.49
68456;BME280;55437;55.046;38.838;2023-02-28T08:44:05;99685.56;;;6.24;33.00
68456;BME280;55437;55.046;38.838;2023-02-28T08:46:49;99692.06;;;5.90;33.86
68456;BME280;55437;55.046;38.838;2023-02-28T08:49:15;99678.81;;;5.66;34.00
68456;BME280;55437;55.046;38.838;2023-02-28T08:51:41;99679.94;;;5.44;34.23
68456;BME280;55437;55.046;38.838;2023-02-28T08:54:08;99677.00;;;5.12;35.04
68456;BME280;55437;55.046;38.838;2023-02-28T08:56:33;99668.19;;;4.69;35.85
68456;BME280;55437;55.046;38.838;2023-02-28T08:58:59;99676.00;;;4.48;36.03
68456;BME280;55437;55.046;38.838;2023-02-28T09:01:27;99670.16;;;4.40;35.97
68456;BME280;55437;55.046;38.838;2023-02-28T09:03:55;99675.25;;;4.39;36.30
68456;BME280;55437;55.046;38.838;2023-02-28T09:06:24;99671.09;;;4.34;36.37
68456;BME280;55437;55.046;38.838;2023-02-28T09:08:50;99663.53;;;4.24;36.93
68456;BME280;55437;55.046;38.838;2023-02-28T09:11:16;99658.75;;;3.87;37.27
68456;BME280;55437;55.046;38.838;2023-02-28T09:13:43;99655.31;;;3.97;37.75
68456;BME280;55437;55.046;38.838;2023-02-28T09:16:12;99656.94;;;4.05;37.64
68456;BME280;55437;55.046;38.838;2023-02-28T09:18:38;99645.06;;;4.07;37.63
68456;BME280;55437;55.046;38.838;2023-02-28T09:21:07;99643.34;;;4.10;38.12
68456;BME280;55437;55.046;38.838;2023-02-28T09:23:52;99639.13;;;4.09;38.11
68456;BME280;55437;55.046;38.838;2023-02-28T09:26:22;99624.00;;;3.94;38.44
68456;BME280;55437;55.046;38.838;2023-02-28T09:29:06;99624.03;;;3.91;38.61
68456;BME280;55437;55.046;38.838;2023-02-28T09:31:33;99612.28;;;3.81;39.21
68456;BME280;55437;55.046;38.838;2023-02-28T09:33:59;99598.91;;;3.60;39.37
68456;BME280;55437;55.046;38.838;2023-02-28T09:36:26;99605.59;;;3.68;39.69
68456;BME280;55437;55.046;38.838;2023-02-28T09:38:53;99587.84;;;3.63;40.14
68456;BME280;55437;55.046;38.838;2023-02-28T09:41:24;99577.44;;;3.93;39.62
68456;BME280;55437;55.046;38.838;2023-02-28T09:43:59;99575.25;;;4.43;39.26
68456;BME280;55437;55.046;38.838;2023-02-28T09:46:43;99571.91;;;5.06;38.53
68456;BME280;55437;55.046;38.838;2023-02-28T09:49:19;99559.78;;;5.21;38.53
68456;BME280;55437;55.046;38.838;2023-02-28T09:52:00;99551.81;;;5.43;38.43
68456;BME280;55437;55.046;38.838;2023-02-28T09:54:29;99540.91;;;5.35;38.90
68456;BME280;55437;55.046;38.838;2023-02-28T09:56:59;99525.16;;;5.12;38.74
68456;BME280;55437;55.046;38.838;2023-02-28T10:02:41;99521.31;;;4.84;39.46
68456;BME280;55437;55.046;38.838;2023-02-28T10:05:16;99541.75;;;4.79;39.50
68456;BME280;55437;55.046;38.838;2023-02-28T10:10:40;99530.63;;;4.85;39.62
68456;BME280;55437;55.046;38.838;2023-02-28T10:15:53;99519.72;;;5.33;39.16
68456;BME280;55437;55.046;38.838;2023-02-28T10:18:27;99525.81;;;5.25;39.27
68456;BME280;55437;55.046;38.838;2023-02-28T10:20:56;99521.59;;;5.22;39.25
68456;BME280;55437;55.046;38.838;2023-02-28T10:23:28;99516.47;;;5.25;39.42
68456;BME280;55437;55.046;38.838;2023-02-28T10:26:03;99499.81;;;5.06;39.82
68456;BME280;55437;55.046;38.838;2023-02-28T10:28:31;99500.34;;;4.68;40.46
68456;BME280;55437;55.046;38.838;2023-02-28T10:30:58;99482.56;;;4.68;40.51
68456;BME280;55437;55.046;38.838;2023-02-28T10:33:29;99484.72;;;4.34;41.24
68456;BME280;55437;55.046;38.838;2023-02-28T10:35:56;99477.22;;;4.22;41.59
68456;BME280;55437;55.046;38.838;2023-02-28T10:38:28;99467.78;;;4.31;41.77
68456;BME280;55437;55.046;38.838;2023-02-28T10:41:07;99454.97;;;4.38;41.15
68456;BME280;55437;55.046;38.838;2023-02-28T10:43:36;99452.28;;;4.48;41.01
68456;BME280;55437;55.046;38.838;2023-02-28T10:51:16;99470.94;;;4.47;41.51
68456;BME280;55437;55.046;38.838;2023-02-28T10:53:51;99467.50;;;4.53;41.53
68456;BME280;55437;55.046;38.838;2023-02-28T10:56:23;99460.00;;;4.45;41.55
68456;BME280;55437;55.046;38.838;2023-02-28T11:01:42;99458.84;;;4.66;41.49
68456;BME280;55437;55.046;38.838;2023-02-28T11:07:10;99449.91;;;4.96;41.13
68456;BME280;55437;55.046;38.838;2023-02-28T11:09:46;99442.63;;;4.71;41.76
68456;BME280;55437;55.046;38.838;2023-02-28T11:12:30;99437.94;;;4.46;42.08
68456;BME280;55437;55.046;38.838;2023-02-28T11:15:05;99424.72;;;4.21;42.87
68456;BME280;55437;55.046;38.838;2023-02-28T11:17:33;99429.28;;;3.94;43.72
68456;BME280;55437;55.046;38.838;2023-02-28T11:20:02;99426.75;;;3.93;44.18
68456;BME280;55437;55.046;38.838;2023-02-28T11:22:32;99427.56;;;3.96;44.20
68456;BME280;55437;55.046;38.838;2023-02-28T11:25:08;99421.66;;;3.96;44.20
68456;BME280;55437;55.046;38.838;2023-02-28T11:27:51;99415.78;;;3.89;44.76
68456;BME280;55437;55.046;38.838;2023-02-28T11:30:46;99423.63;;;3.70;45.48
68456;BME280;55437;55.046;38.838;2023-02-28T11:33:46;99405.84;;;3.73;45.35
68456;BME280;55437;55.046;38.838;2023-02-28T11:36:26;99408.38;;;3.74;45.43
68456;BME280;55437;55.046;38.838;2023-02-28T11:39:12;99407.53;;;3.72;45.71
68456;BME280;55437;55.046;38.838;2023-02-28T11:47:40;99401.03;;;3.48;46.20
68456;BME280;55437;55.046;38.838;2023-02-28T11:50:52;99409.53;;;3.43;46.98
68456;BME280;55437;55.046;38.838;2023-02-28T11:53:23;99405.41;;;3.34;47.00
68456;BME280;55437;55.046;38.838;2023-02-28T11:56:33;99406.38;;;3.18;47.07
68456;BME280;55437;55.046;38.838;2023-02-28T12:01:38;99406.47;;;3.10;47.50
68456;BME280;55437;55.046;38.838;2023-02-28T12:09:44;99394.78;;;2.93;48.25
68456;BME280;55437;55.046;38.838;2023-02-28T12:12:23;99392.28;;;2.89;48.21
68456;BME280;55437;55.046;38.838;2023-02-28T12:20:38;99382.09;;;2.94;48.75
68456;BME280;55437;55.046;38.838;2023-02-28T12:28:46;99391.56;;;2.74;49.26
68456;BME280;55437;55.046;38.838;2023-02-28T12:31:24;99397.50;;;2.70;49.53
68456;BME280;55437;55.046;38.838;2023-02-28T12:34:06;99388.16;;;2.73;48.99
68456;BME280;55437;55.046;38.838;2023-02-28T12:36:33;99383.13;;;2.72;49.50
68456;BME280;55437;55.046;38.838;2023-02-28T12:41:47;99379.84;;;2.56;50.25
68456;BME280;55437;55.046;38.838;2023-02-28T12:44:36;99374.75;;;2.61;50.26
68456;BME280;55437;55.046;38.838;2023-02-28T12:47:10;99369.75;;;2.51;50.49
68456;BME280;55437;55.046;38.838;2023-02-28T12:52:28;99364.75;;;2.41;51.12
68456;BME280;55437;55.046;38.838;2023-02-28T12:55:27;99363.03;;;2.46;51.45
68456;BME280;55437;55.046;38.838;2023-02-28T13:03:52;99359.69;;;2.41;51.92
68456;BME280;55437;55.046;38.838;2023-02-28T13:09:09;99349.66;;;2.27;53.03
68456;BME280;55437;55.046;38.838;2023-02-28T13:11:55;99331.88;;;2.30;53.43
68456;BME280;55437;55.046;38.838;2023-02-28T13:14:44;99339.53;;;2.26;53.63
68456;BME280;55437;55.046;38.838;2023-02-28T13:17:29;99340.38;;;2.20;54.17
68456;BME280;55437;55.046;38.838;2023-02-28T13:19:59;99342.13;;;2.15;54.59
68456;BME280;55437;55.046;38.838;2023-02-28T13:24:53;99338.78;;;2.07;55.33
68456;BME280;55437;55.046;38.838;2023-02-28T13:27:24;99331.28;;;1.93;55.93
68456;BME280;55437;55.046;38.838;2023-02-28T13:29:58;99326.25;;;1.89;56.64
68456;BME280;55437;55.046;38.838;2023-02-28T13:39:54;99317.03;;;1.69;57.43
68456;BME280;55437;55.046;38.838;2023-02-28T13:42:47;99307.75;;;1.71;57.68
68456;BME280;55437;55.046;38.838;2023-02-28T13:45:27;99301.91;;;1.66;57.94
68456;BME280;55437;55.046;38.838;2023-02-28T13:48:03;99301.91;;;1.66;57.73
68456;BME280;55437;55.046;38.838;2023-02-28T13:50:32;99290.94;;;1.63;57.59
68456;BME280;55437;55.046;38.838;2023-02-28T13:56:02;99286.72;;;1.66;57.68
68456;BME280;55437;55.046;38.838;2023-02-28T14:01:35;99279.06;;;1.77;57.44
68456;BME280;55437;55.046;38.838;2023-02-28T14:06:53;99257.06;;;1.87;57.31
68456;BME280;55437;55.046;38.838;2023-02-28T14:09:34;99252.06;;;1.77;57.49
68456;BME280;55437;55.046;38.838;2023-02-28T14:17:55;99241.09;;;1.77;57.95
68456;BME280;55437;55.046;38.838;2023-02-28T14:20:26;99239.41;;;1.77;57.79
68456;BME280;55437;55.046;38.838;2023-02-28T14:23:19;99238.59;;;1.71;58.40
68456;BME280;55437;55.046;38.838;2023-02-28T14:25:55;99231.84;;;1.70;58.29
68456;BME280;55437;55.046;38.838;2023-02-28T14:28:57;99228.44;;;1.74;58.53
68456;BME280;55437;55.046;38.838;2023-02-28T14:31:41;99236.91;;;1.70;58.97
68456;BME280;55437;55.046;38.838;2023-02-28T14:36:45;99228.47;;;1.71;59.06
68456;BME280;55437;55.046;38.838;2023-02-28T14:39:15;99226.00;;;1.65;59.22
68456;BME280;55437;55.046;38.838;2023-02-28T14:41:44;99211.66;;;1.67;59.46
68456;BME280;55437;55.046;38.838;2023-02-28T14:46:48;99208.28;;;1.60;59.90
68456;BME280;55437;55.046;38.838;2023-02-28T14:49:29;99209.13;;;1.65;59.87
68456;BME280;55437;55.046;38.838;2023-02-28T14:52:11;99205.66;;;1.75;59.51
68456;BME280;55437;55.046;38.838;2023-02-28T14:54:39;99208.19;;;1.80;59.59
68456;BME280;55437;55.046;38.838;2023-02-28T14:57:05;99212.41;;;1.81;59.60
68456;BME280;55437;55.046;38.838;2023-02-28T14:59:34;99218.25;;;1.83;59.78
68456;BME280;55437;55.046;38.838;2023-02-28T15:02:21;99209.91;;;1.73;60.07
68456;BME280;55437;55.046;38.838;2023-02-28T15:08:04;99204.91;;;1.64;60.80
68456;BME280;55437;55.046;38.838;2023-02-28T15:11:16;99199.84;;;1.60;60.90
68456;BME280;55437;55.046;38.838;2023-02-28T15:13:48;99187.25;;;1.57;60.92
68456;BME280;55437;55.046;38.838;2023-02-28T15:16:39;99192.28;;;1.60;61.28
68456;BME280;55437;55.046;38.838;2023-02-28T15:21:52;99178.78;;;1.59;61.36
68456;BME280;55437;55.046;38.838;2023-02-28T15:27:25;99186.34;;;1.64;61.68
68456;BME280;55437;55.046;38.838;2023-02-28T15:29:56;99177.91;;;1.68;61.62
68456;BME280;55437;55.046;38.838;2023-02-28T15:35:51;99175.38;;;1.68;61.82
68456;BME280;55437;55.046;38.838;2023-02-28T15:38:29;99183.81;;;1.62;62.11